createdAt,value
2019-04-22T00:01:56.923Z,65.72
2019-04-22T00:04:41.790Z,66.12
2019-04-22T00:07:22.171Z,65.78
2019-04-22T00:09:51.514Z,65.86
2019-04-22T00:12:27.413Z,65.91
2019-04-22T00:14:52.538Z,66.42
2019-04-22T00:17:31.953Z,66.28
2019-04-22T00:22:28.858Z,65.87
2019-04-22T00:25:02.992Z,66.23
2019-04-22T00:27:39.005Z,65.92
2019-04-22T00:30:09.102Z,65.81
2019-04-22T00:32:36.585Z,66.64
2019-04-22T00:35:09.987Z,65.52
2019-04-22T00:37:43.482Z,66.17
2019-04-22T00:40:14.622Z,66.49
2019-04-22T00:42:41.547Z,67.56
2019-04-22T00:45:11.754Z,67.17
2019-04-22T00:48:01.043Z,67.07
2019-04-22T00:50:22.403Z,67.36
2019-04-22T00:52:49.324Z,66.98
2019-04-22T00:55:22.419Z,67.54
2019-04-22T00:57:52.111Z,67.13
2019-04-22T01:00:18.350Z,67.90
2019-04-22T01:02:54.056Z,67.98
2019-04-22T01:07:56.362Z,67.47
2019-04-22T01:10:26.430Z,67.57
2019-04-22T01:12:57.272Z,67.84
2019-04-22T01:15:28.816Z,67.54
2019-04-22T01:17:57.910Z,67.21
2019-04-22T01:20:54.495Z,68.00
2019-04-22T01:22:58.953Z,68.21
2019-04-22T01:25:30.970Z,69.07
2019-04-22T01:27:54.768Z,68.84
2019-04-22T01:30:23.250Z,69.45
2019-04-22T01:32:48.605Z,68.75
2019-04-22T01:35:29.500Z,68.87
2019-04-22T01:38:06.520Z,69.17
2019-04-22T01:40:49.560Z,69.57
2019-04-22T01:43:18.545Z,69.60
2019-04-22T01:45:47.652Z,69.57
2019-04-22T01:48:19.771Z,69.56
2019-04-22T01:50:46.181Z,69.11
2019-04-22T01:53:24.684Z,69.58
2019-04-22T01:55:49.748Z,69.95
2019-04-22T01:58:18.426Z,70.55
2019-04-22T02:00:53.754Z,69.59
2019-04-22T02:03:31.154Z,69.47
2019-04-22T02:05:59.521Z,69.72
2019-04-22T02:08:36.607Z,70.40
2019-04-22T02:16:50.335Z,69.82
2019-04-22T02:19:18.778Z,70.81
2019-04-22T02:24:40.926Z,71.10
2019-04-22T02:27:13.776Z,71.03
2019-04-22T02:32:24.759Z,71.49
2019-04-22T02:34:46.042Z,72.03
2019-04-22T02:40:10.271Z,72.19
2019-04-22T02:42:32.394Z,72.32
2019-04-22T02:45:09.643Z,72.29
2019-04-22T02:47:42.194Z,72.41
2019-04-22T02:52:43.516Z,72.34
2019-04-22T02:55:17.153Z,72.61
2019-04-22T02:57:47.122Z,72.92
2019-04-22T03:00:25.060Z,72.29
2019-04-22T03:03:01.044Z,72.44
2019-04-22T03:10:18.758Z,73.08
2019-04-22T03:13:09.276Z,72.95
2019-04-22T03:15:12.811Z,73.31
2019-04-22T03:17:51.585Z,73.46
2019-04-22T03:20:17.816Z,73.48
2019-04-22T03:22:55.085Z,73.05
2019-04-22T03:27:48.537Z,73.26
2019-04-22T03:30:47.385Z,73.55
2019-04-22T03:33:12.440Z,73.31
2019-04-22T03:35:37.431Z,73.16
2019-04-22T03:37:53.305Z,73.41
2019-04-22T03:40:38.800Z,72.60
2019-04-22T03:47:57.593Z,72.21
2019-04-22T03:50:30.862Z,72.01
2019-04-22T03:53:05.792Z,71.87
2019-04-22T03:55:37.439Z,72.39
2019-04-22T03:57:56.966Z,72.78
2019-04-22T04:03:06.841Z,72.73
2019-04-22T04:08:16.364Z,72.42
2019-04-22T04:13:08.283Z,69.33
2019-04-22T04:15:47.992Z,67.67
2019-04-22T04:18:37.349Z,67.79
2019-04-22T04:20:56.390Z,67.49
2019-04-22T04:25:48.441Z,67.65
2019-04-22T04:30:48.769Z,67.80
2019-04-22T04:38:24.450Z,66.54
2019-04-22T04:40:49.072Z,66.95
2019-04-22T04:43:26.285Z,66.68
2019-04-22T04:45:54.751Z,66.66
2019-04-22T04:48:32.676Z,65.08
2019-04-22T04:51:11.113Z,64.10
2019-04-22T04:55:53.163Z,64.60
2019-04-22T05:01:18.908Z,62.93
2019-04-22T05:06:05.549Z,62.54
2019-04-22T05:11:10.988Z,61.78
2019-04-22T05:16:25.099Z,61.60
2019-04-22T05:21:14.785Z,61.32
2019-04-22T05:23:50.594Z,61.09
2019-04-22T05:26:16.509Z,61.55
2019-04-22T05:28:40.140Z,59.92
2019-04-22T05:31:16.176Z,59.76
2019-04-22T05:33:42.563Z,59.17
2019-04-22T05:36:13.026Z,59.47
2019-04-22T05:38:47.932Z,58.96
2019-04-22T05:41:17.720Z,58.21
2019-04-22T05:43:51.298Z,57.05
2019-04-22T05:46:15.757Z,57.78
2019-04-22T05:48:54.251Z,56.38
2019-04-22T05:51:23.328Z,56.09
2019-04-22T05:53:50.951Z,54.22
2019-04-22T05:56:28.052Z,55.84
2019-04-22T06:01:40.350Z,55.34
2019-04-22T06:04:04.231Z,55.99
2019-04-22T06:06:24.278Z,54.73
2019-04-22T06:09:07.187Z,53.32
2019-04-22T06:11:29.586Z,52.99
2019-04-22T06:13:58.303Z,52.85
2019-04-22T06:16:42.321Z,53.29
2019-04-22T06:19:08.790Z,52.72
2019-04-22T06:21:40.176Z,52.89
2019-04-22T06:27:05.679Z,52.66
2019-04-22T06:32:03.416Z,52.78
2019-04-22T06:34:17.726Z,51.35
2019-04-22T06:39:23.499Z,51.96
2019-04-22T06:41:47.743Z,50.84
2019-04-22T06:44:18.730Z,49.93
2019-04-22T06:49:27.338Z,48.43
2019-04-22T06:51:55.663Z,49.01
2019-04-22T06:54:21.630Z,49.59
2019-04-22T06:56:58.177Z,47.65
2019-04-22T06:59:26.588Z,47.86
2019-04-22T07:04:31.428Z,47.75
2019-04-22T07:07:04.600Z,48.81
2019-04-22T07:09:37.779Z,46.89
2019-04-22T07:12:04.736Z,45.72
2019-04-22T07:14:35.633Z,45.53
2019-04-22T07:17:05.140Z,45.79
2019-04-22T07:19:37.139Z,43.37
2019-04-22T07:22:13.489Z,44.00
2019-04-22T07:27:10.540Z,44.79
2019-04-22T07:29:46.660Z,44.43
2019-04-22T07:32:13.132Z,43.35
2019-04-22T07:34:49.279Z,44.65
2019-04-22T07:37:28.353Z,42.13
2019-04-22T07:39:45.911Z,40.45
2019-04-22T07:42:19.204Z,39.63
2019-04-22T07:44:53.167Z,42.40
2019-04-22T07:47:25.124Z,41.58
2019-04-22T07:49:54.253Z,41.78
2019-04-22T07:52:24.454Z,40.64
2019-04-22T07:54:52.505Z,40.48
2019-04-22T07:57:27.806Z,40.88
2019-04-22T08:00:02.932Z,40.32
2019-04-22T08:02:32.027Z,42.45
2019-04-22T08:07:29.743Z,39.01
2019-04-22T08:10:12.422Z,38.33
2019-04-22T08:12:39.141Z,37.14
2019-04-22T08:15:05.693Z,37.70
2019-04-22T08:20:09.200Z,39.20
2019-04-22T08:22:47.672Z,39.58
2019-04-22T08:25:08.173Z,38.91
2019-04-22T08:27:46.778Z,37.89
2019-04-22T08:30:20.439Z,37.90
2019-04-22T08:32:48.887Z,37.38
2019-04-22T08:35:19.975Z,35.59
2019-04-22T08:37:50.951Z,36.15
2019-04-22T08:40:29.300Z,38.10
2019-04-22T08:45:31.871Z,34.93
2019-04-22T08:47:54.816Z,36.25
2019-04-22T08:50:26.698Z,36.97
2019-04-22T08:53:03.799Z,37.15
2019-04-22T08:55:32.843Z,37.74
2019-04-22T09:00:37.316Z,35.89
2019-04-22T09:03:23.937Z,36.98
2019-04-22T09:08:14.199Z,37.69
2019-04-22T09:10:44.667Z,37.66
2019-04-22T09:13:14.472Z,35.96
2019-04-22T09:15:48.744Z,35.20
2019-04-22T09:18:25.503Z,36.46
2019-04-22T09:21:00.767Z,34.62
2019-04-22T09:23:30.324Z,35.06
2019-04-22T09:25:53.299Z,35.59
2019-04-22T09:28:33.240Z,35.41
2019-04-22T09:31:01.798Z,35.73
2019-04-22T09:33:32.215Z,34.67
2019-04-22T09:36:16.249Z,34.99
2019-04-22T09:38:38.256Z,35.73
2019-04-22T09:41:10.373Z,34.75
2019-04-22T09:43:47.172Z,33.96
2019-04-22T09:46:09.134Z,32.27
2019-04-22T09:48:50.207Z,35.26
2019-04-22T09:51:18.573Z,36.12
2019-04-22T09:54:02.586Z,34.73
2019-04-22T09:56:34.659Z,36.35
2019-04-22T09:59:07.709Z,35.08
2019-04-22T10:01:47.374Z,35.01
2019-04-22T10:04:18.811Z,35.16
2019-04-22T10:06:54.672Z,35.34
2019-04-22T10:12:10.272Z,33.38
2019-04-22T10:14:55.770Z,33.84
2019-04-22T10:17:15.644Z,33.88
2019-04-22T10:19:43.919Z,35.12
2019-04-22T10:22:19.716Z,35.12
2019-04-22T10:24:55.384Z,34.19
2019-04-22T10:27:20.838Z,34.34
2019-04-22T10:30:00.064Z,34.34
2019-04-22T10:32:33.589Z,34.16
2019-04-22T10:34:55.506Z,34.82
2019-04-22T10:37:22.391Z,33.82
2019-04-22T10:40:00.949Z,32.89
2019-04-22T10:42:35.433Z,32.89
2019-04-22T10:45:06.307Z,34.22
2019-04-22T10:47:36.012Z,34.78
2019-04-22T10:50:12.424Z,33.21
2019-04-22T10:52:43.461Z,32.78
2019-04-22T10:55:17.148Z,33.94
2019-04-22T10:57:46.849Z,33.23
2019-04-22T11:00:19.734Z,34.54
2019-04-22T11:03:02.299Z,34.54
2019-04-22T11:05:44.282Z,33.71
2019-04-22T11:08:27.225Z,33.72
2019-04-22T11:11:11.941Z,31.86
2019-04-22T11:13:28.460Z,32.65
2019-04-22T11:16:03.316Z,32.65
2019-04-22T11:18:33.764Z,32.14
2019-04-22T11:21:15.378Z,32.32
2019-04-22T11:23:45.239Z,30.92
2019-04-22T11:26:17.803Z,30.92
2019-04-22T11:28:53.972Z,31.47
2019-04-22T11:31:28.329Z,31.54
2019-04-22T11:33:58.529Z,31.67
2019-04-22T11:36:30.588Z,31.41
2019-04-22T11:39:03.541Z,31.09
2019-04-22T11:41:31.226Z,30.01
2019-04-22T11:44:01.304Z,30.01
2019-04-22T11:46:31.508Z,31.64
2019-04-22T11:49:05.829Z,33.09
2019-04-22T11:51:36.013Z,32.83
2019-04-22T11:54:07.207Z,33.67
2019-04-22T11:56:43.049Z,31.47
2019-04-22T11:59:20.467Z,31.81
2019-04-22T12:01:48.838Z,31.81
2019-04-22T12:04:18.319Z,31.56
2019-04-22T12:06:51.636Z,33.53
2019-04-22T12:09:23.804Z,31.53
2019-04-22T12:11:56.130Z,31.77
2019-04-22T12:14:29.990Z,33.10
2019-04-22T12:17:03.655Z,33.10
2019-04-22T12:19:37.813Z,32.79
2019-04-22T12:25:10.390Z,31.76
2019-04-22T12:27:37.343Z,31.73
2019-04-22T12:30:12.583Z,32.13
2019-04-22T12:32:45.387Z,32.13
2019-04-22T12:35:17.745Z,31.00
2019-04-22T12:40:47.387Z,29.85
2019-04-22T12:43:18.081Z,28.60
2019-04-22T12:46:00.395Z,28.60
2019-04-22T12:48:39.114Z,29.70
2019-04-22T12:51:15.314Z,29.97
2019-04-22T12:53:46.255Z,28.77
2019-04-22T12:56:25.906Z,29.76
2019-04-22T12:58:54.044Z,30.17
2019-04-22T13:01:24.678Z,29.05
2019-04-22T13:04:00.293Z,29.05
2019-04-22T13:06:25.831Z,30.87
2019-04-22T13:08:56.596Z,29.61
2019-04-22T13:11:32.842Z,29.88
2019-04-22T13:14:01.034Z,29.58
2019-04-22T13:16:33.155Z,29.97
2019-04-22T13:19:11.711Z,30.33
2019-04-22T13:21:44.852Z,30.33
2019-04-22T13:24:15.982Z,29.19
2019-04-22T13:26:48.997Z,30.07
2019-04-22T13:29:19.301Z,30.69
2019-04-22T13:31:48.987Z,30.69
2019-04-22T13:34:29.636Z,30.26
2019-04-22T13:37:03.098Z,30.26
2019-04-22T13:39:36.814Z,30.48
2019-04-22T13:42:11.871Z,29.85
2019-04-22T13:44:37.799Z,29.95
2019-04-22T13:47:25.653Z,30.19
2019-04-22T13:52:48.285Z,28.72
2019-04-22T13:54:01.902Z,29.66
2019-04-22T13:55:05.689Z,30.53
2019-04-22T13:57:32.604Z,30.53
2019-04-22T13:59:53.869Z,29.69
2019-04-22T14:02:40.197Z,29.69
2019-04-22T14:05:12.768Z,30.62
2019-04-22T14:07:43.171Z,30.62
2019-04-22T14:10:14.200Z,30.10
2019-04-22T14:12:48.765Z,28.81
2019-04-22T14:15:18.073Z,28.81
2019-04-22T14:17:49.134Z,29.56
2019-04-22T14:20:24.057Z,29.01
2019-04-22T14:22:52.812Z,28.46
2019-04-22T14:25:24.806Z,28.46
2019-04-22T14:28:01.922Z,29.09
2019-04-22T14:30:26.347Z,30.59
2019-04-22T14:32:56.321Z,29.89
2019-04-22T14:35:27.117Z,29.46
2019-04-22T14:37:57.975Z,29.46
2019-04-22T14:40:29.969Z,30.32
2019-04-22T14:43:23.365Z,31.63
2019-04-22T14:46:10.963Z,31.79
2019-04-22T14:48:42.095Z,30.93
2019-04-22T14:51:05.984Z,30.93
2019-04-22T14:53:35.542Z,30.31
2019-04-22T14:55:46.489Z,30.79
2019-04-22T14:58:15.232Z,31.67
2019-04-22T15:00:49.288Z,31.67
2019-04-22T15:03:22.104Z,31.77
2019-04-22T15:05:52.308Z,31.77
2019-04-22T15:08:21.833Z,32.21
2019-04-22T15:10:51.856Z,32.22
2019-04-22T15:13:21.321Z,32.31
2019-04-22T15:15:54.611Z,32.64
2019-04-22T15:18:35.706Z,32.14
2019-04-22T15:21:09.060Z,32.15
2019-04-22T15:23:38.638Z,32.15
2019-04-22T15:26:08.599Z,32.04
2019-04-22T15:28:39.500Z,32.40
2019-04-22T15:31:09.365Z,33.40
2019-04-22T15:33:39.519Z,33.59
2019-04-22T15:36:10.013Z,33.76
2019-04-22T15:38:40.540Z,33.76
2019-04-22T15:41:12.382Z,34.54
2019-04-22T15:43:43.569Z,35.33
2019-04-22T15:46:14.082Z,35.84
2019-04-22T15:48:44.069Z,35.84
2019-04-22T15:51:13.507Z,36.73
2019-04-22T15:53:43.423Z,37.18
2019-04-22T15:56:12.905Z,37.46
2019-04-22T15:58:43.796Z,37.36
2019-04-22T16:01:22.097Z,38.06
2019-04-22T16:03:44.857Z,38.01
2019-04-22T16:06:15.748Z,38.52
2019-04-22T16:08:45.790Z,38.81
2019-04-22T16:11:15.919Z,39.66
2019-04-22T16:13:46.563Z,40.50
2019-04-22T16:16:20.694Z,40.79
2019-04-22T16:18:50.899Z,41.78
2019-04-22T16:21:30.196Z,41.88
2019-04-22T16:23:54.337Z,42.09
2019-04-22T16:26:40.943Z,42.33
2019-04-22T16:29:13.622Z,42.77
2019-04-22T16:31:43.240Z,42.76
2019-04-22T16:34:13.312Z,43.08
2019-04-22T16:36:43.012Z,43.19
2019-04-22T16:39:13.307Z,42.70
2019-04-22T16:41:44.566Z,43.54
2019-04-22T16:44:14.435Z,43.67
2019-04-22T16:46:44.026Z,44.29
2019-04-22T16:49:13.995Z,44.88
2019-04-22T16:51:43.668Z,45.06
2019-04-22T16:54:13.869Z,45.37
2019-04-22T16:56:43.948Z,46.01
2019-04-22T16:59:14.781Z,46.08
2019-04-22T17:01:46.315Z,46.69
2019-04-22T17:04:18.683Z,47.07
2019-04-22T17:06:49.855Z,47.44
2019-04-22T17:09:19.644Z,47.70
2019-04-22T17:11:49.872Z,47.67
2019-04-22T17:14:27.207Z,47.99
2019-04-22T17:16:50.734Z,47.50
2019-04-22T17:19:21.675Z,47.34
2019-04-22T17:21:51.187Z,47.11
2019-04-22T17:24:21.655Z,47.30
2019-04-22T17:26:52.271Z,47.89
2019-04-22T17:29:22.809Z,48.04
2019-04-22T17:31:58.464Z,48.43
2019-04-22T17:34:23.599Z,48.84
2019-04-22T17:36:53.269Z,49.14
2019-04-22T17:39:35.940Z,48.30
2019-04-22T17:42:15.723Z,47.78
2019-04-22T17:44:48.647Z,47.48
2019-04-22T17:47:21.705Z,47.56
2019-04-22T17:49:59.945Z,47.72
2019-04-22T17:52:25.180Z,47.30
2019-04-22T17:54:53.067Z,47.30
2019-04-22T17:57:27.879Z,47.29
2019-04-22T17:59:55.400Z,47.44
2019-04-22T18:02:26.865Z,47.58
2019-04-22T18:04:52.993Z,47.28
2019-04-22T18:07:52.187Z,47.21
2019-04-22T18:10:27.119Z,47.12
2019-04-22T18:12:42.594Z,46.88
2019-04-22T18:15:12.093Z,46.90
2019-04-22T18:17:43.586Z,46.79
2019-04-22T18:20:05.781Z,46.65
2019-04-22T18:22:33.086Z,46.84
2019-04-22T18:25:04.941Z,46.60
2019-04-22T18:27:55.093Z,46.87
2019-04-22T18:30:11.414Z,46.91
2019-04-22T18:32:46.797Z,46.49
2019-04-22T18:35:14.229Z,47.02
2019-04-22T18:37:50.015Z,46.67
2019-04-22T18:40:21.174Z,46.36
2019-04-22T18:42:52.456Z,46.54
2019-04-22T18:45:37.515Z,46.35
2019-04-22T18:47:52.227Z,46.32
2019-04-22T18:50:33.778Z,46.10
2019-04-22T18:53:03.753Z,46.42
2019-04-22T18:55:33.838Z,46.18
2019-04-22T18:58:12.073Z,46.54
2019-04-22T19:00:31.555Z,46.34
2019-04-22T19:03:08.894Z,46.28
2019-04-22T19:05:51.968Z,46.77
2019-04-22T19:08:36.792Z,46.44
2019-04-22T19:11:02.551Z,46.31
2019-04-22T19:13:54.475Z,46.22
2019-04-22T19:16:17.599Z,46.32
2019-04-22T19:18:37.943Z,46.51
2019-04-22T19:21:07.932Z,46.55
2019-04-22T19:23:34.722Z,46.46
2019-04-22T19:26:08.251Z,46.53
2019-04-22T19:28:51.143Z,46.66
2019-04-22T19:31:10.690Z,46.44
2019-04-22T19:33:41.785Z,47.07
2019-04-22T19:36:10.760Z,46.75
2019-04-22T19:38:31.165Z,46.76
2019-04-22T19:41:19.960Z,46.68
2019-04-22T19:43:46.877Z,46.90
2019-04-22T19:46:17.002Z,47.20
2019-04-22T19:48:49.326Z,47.18
2019-04-22T19:51:23.598Z,47.07
2019-04-22T19:53:51.233Z,47.18
2019-04-22T19:56:11.495Z,47.34
2019-04-22T19:58:42.637Z,47.41
2019-04-22T20:01:34.610Z,47.53
2019-04-22T20:04:19.714Z,47.28
2019-04-22T20:06:47.584Z,47.83
2019-04-22T20:09:26.835Z,47.85
2019-04-22T20:11:57.474Z,48.08
2019-04-22T20:14:29.810Z,47.93
2019-04-22T20:16:48.924Z,47.82
2019-04-22T20:19:38.303Z,48.32
2019-04-22T20:22:00.093Z,48.11
2019-04-22T20:24:16.880Z,47.79
2019-04-22T20:27:05.657Z,47.81
2019-04-22T20:29:38.361Z,47.99
2019-04-22T20:32:05.976Z,48.07
2019-04-22T20:34:38.444Z,47.99
2019-04-22T20:39:43.783Z,48.15
2019-04-22T20:42:23.554Z,48.45
2019-04-22T20:44:45.953Z,48.95
2019-04-22T20:47:09.256Z,49.34
2019-04-22T20:49:44.600Z,49.57
2019-04-22T20:52:23.587Z,49.96
2019-04-22T20:54:44.906Z,49.88
2019-04-22T20:57:17.292Z,49.91
2019-04-22T20:59:44.309Z,50.28
2019-04-22T21:02:15.273Z,50.52
2019-04-22T21:04:41.467Z,50.41
2019-04-22T21:07:13.757Z,50.51
2019-04-22T21:09:49.317Z,50.93
2019-04-22T21:12:17.604Z,50.45
2019-04-22T21:15:03.582Z,51.03
2019-04-22T21:17:24.165Z,50.59
2019-04-22T21:20:00.701Z,50.84
2019-04-22T21:22:29.201Z,50.58
2019-04-22T21:24:52.216Z,50.85
2019-04-22T21:27:35.454Z,50.70
2019-04-22T21:29:52.050Z,50.35
2019-04-22T21:32:34.275Z,50.55
2019-04-22T21:35:07.700Z,50.40
2019-04-22T21:37:38.489Z,50.59
2019-04-22T21:40:10.690Z,50.59
2019-04-22T21:42:41.671Z,50.85
2019-04-22T21:45:05.522Z,50.65
2019-04-22T21:47:55.747Z,51.27
2019-04-22T21:50:28.249Z,50.20
2019-04-22T21:52:40.576Z,50.61
2019-04-22T21:55:16.676Z,50.99
2019-04-22T21:58:05.063Z,50.62
2019-04-22T22:00:44.507Z,50.60
2019-04-22T22:03:05.678Z,50.90
2019-04-22T22:05:30.030Z,50.53
2019-04-22T22:07:57.252Z,50.79
2019-04-22T22:10:43.388Z,50.96
2019-04-22T22:13:10.934Z,50.77
2019-04-22T22:15:46.569Z,50.66
2019-04-22T22:18:08.744Z,51.23
2019-04-22T22:20:51.037Z,50.87
2019-04-22T22:23:22.329Z,51.12
2019-04-22T22:25:46.823Z,50.70
2019-04-22T22:28:33.143Z,50.11
2019-04-22T22:30:54.743Z,50.73
2019-04-22T22:33:17.398Z,50.75
2019-04-22T22:35:47.069Z,50.39
2019-04-22T22:38:18.100Z,49.89
2019-04-22T22:40:35.908Z,50.50
2019-04-22T22:43:15.529Z,50.00
2019-04-22T22:45:41.301Z,49.96
2019-04-22T22:48:32.145Z,50.00
2019-04-22T22:50:54.410Z,50.33
2019-04-22T22:53:34.303Z,50.42
2019-04-22T22:55:58.028Z,50.53
2019-04-22T22:58:34.522Z,50.57
2019-04-22T23:01:00.922Z,50.86
2019-04-22T23:03:45.901Z,50.27
2019-04-22T23:06:15.767Z,50.52
2019-04-22T23:08:38.217Z,51.11
2019-04-22T23:11:16.972Z,51.22
2019-04-22T23:13:37.084Z,50.52
2019-04-22T23:16:02.897Z,50.74
2019-04-22T23:18:19.779Z,50.83
2019-04-22T23:20:51.826Z,50.79
2019-04-22T23:23:38.190Z,50.73
2019-04-22T23:28:37.194Z,50.00
2019-04-22T23:31:22.155Z,49.85
2019-04-22T23:33:56.110Z,50.03
2019-04-22T23:36:47.577Z,50.37
2019-04-22T23:39:22.675Z,50.40
2019-04-22T23:41:51.195Z,50.06
2019-04-22T23:44:36.890Z,50.10
2019-04-22T23:46:48.970Z,50.48
2019-04-22T23:49:22.294Z,50.21
2019-04-22T23:52:07.251Z,49.37
2019-04-22T23:54:37.276Z,49.31
2019-04-22T23:56:51.942Z,50.42
2019-04-22T23:59:44.950Z,50.37
